sensor_id;sensor_type;location;lat;lon;timestamp;P1;durP1;ratioP1;P2;durP2;ratioP2
77206;SDS011;66190;50.708;7.906;2023-02-22T00:01:27;28.17;;;11.23;;
77206;SDS011;66190;50.708;7.906;2023-02-22T00:03:59;28.70;;;12.00;;
77206;SDS011;66190;50.708;7.906;2023-02-22T00:06:26;24.43;;;10.17;;
77206;SDS011;66190;50.708;7.906;2023-02-22T00:08:55;28.13;;;11.30;;
77206;SDS011;66190;50.708;7.906;2023-02-22T00:11:21;30.40;;;11.93;;
77206;SDS011;66190;50.708;7.906;2023-02-22T00:13:47;28.90;;;12.70;;
77206;SDS011;66190;50.708;7.906;2023-02-22T00:16:18;29.75;;;12.52;;
77206;SDS011;66190;50.708;7.906;2023-02-22T00:18:46;28.52;;;11.80;;
77206;SDS011;66190;50.708;7.906;2023-02-22T00:21:12;28.48;;;12.52;;
77206;SDS011;66190;50.708;7.906;2023-02-22T00:23:40;28.40;;;12.00;;
77206;SDS011;66190;50.708;7.906;2023-02-22T00:26:10;28.88;;;11.90;;
77206;SDS011;66190;50.708;7.906;2023-02-22T00:28:38;27.85;;;11.35;;
77206;SDS011;66190;50.708;7.906;2023-02-22T00:31:04;25.48;;;10.50;;
77206;SDS011;66190;50.708;7.906;2023-02-22T00:33:31;26.38;;;11.15;;
77206;SDS011;66190;50.708;7.906;2023-02-22T00:35:56;28.35;;;11.88;;
77206;SDS011;66190;50.708;7.906;2023-02-22T00:38:23;25.92;;;11.30;;
77206;SDS011;66190;50.708;7.906;2023-02-22T00:40:49;29.93;;;12.03;;
77206;SDS011;66190;50.708;7.906;2023-02-22T00:43:15;27.60;;;12.18;;
77206;SDS011;66190;50.708;7.906;2023-02-22T00:45:40;22.88;;;10.48;;
77206;SDS011;66190;50.708;7.906;2023-02-22T00:48:07;25.77;;;12.05;;
77206;SDS011;66190;50.708;7.906;2023-02-22T00:50:34;29.40;;;12.00;;
77206;SDS011;66190;50.708;7.906;2023-02-22T00:53:01;26.45;;;11.25;;
77206;SDS011;66190;50.708;7.906;2023-02-22T00:55:29;27.33;;;12.15;;
77206;SDS011;66190;50.708;7.906;2023-02-22T00:57:56;28.88;;;11.70;;
77206;SDS011;66190;50.708;7.906;2023-02-22T01:00:30;27.02;;;12.13;;
77206;SDS011;66190;50.708;7.906;2023-02-22T01:02:59;25.67;;;11.18;;
77206;SDS011;66190;50.708;7.906;2023-02-22T01:05:27;28.83;;;11.38;;
77206;SDS011;66190;50.708;7.906;2023-02-22T01:07:54;27.88;;;11.27;;
77206;SDS011;66190;50.708;7.906;2023-02-22T01:10:22;27.85;;;11.60;;
77206;SDS011;66190;50.708;7.906;2023-02-22T01:12:49;25.55;;;11.60;;
77206;SDS011;66190;50.708;7.906;2023-02-22T01:15:18;30.90;;;11.43;;
77206;SDS011;66190;50.708;7.906;2023-02-22T01:17:48;26.17;;;10.98;;
77206;SDS011;66190;50.708;7.906;2023-02-22T01:20:16;30.17;;;12.25;;
77206;SDS011;66190;50.708;7.906;2023-02-22T01:22:43;28.92;;;11.27;;
77206;SDS011;66190;50.708;7.906;2023-02-22T01:25:12;24.52;;;10.45;;
77206;SDS011;66190;50.708;7.906;2023-02-22T01:27:41;29.48;;;11.75;;
77206;SDS011;66190;50.708;7.906;2023-02-22T01:30:07;29.13;;;11.67;;
77206;SDS011;66190;50.708;7.906;2023-02-22T01:32:36;27.20;;;11.40;;
77206;SDS011;66190;50.708;7.906;2023-02-22T01:35:04;26.95;;;11.07;;
77206;SDS011;66190;50.708;7.906;2023-02-22T01:37:36;25.38;;;10.68;;
77206;SDS011;66190;50.708;7.906;2023-02-22T01:40:03;24.77;;;10.50;;
77206;SDS011;66190;50.708;7.906;2023-02-22T01:42:31;24.98;;;10.93;;
77206;SDS011;66190;50.708;7.906;2023-02-22T01:47:57;29.02;;;11.10;;
77206;SDS011;66190;50.708;7.906;2023-02-22T01:50:42;24.77;;;10.77;;
77206;SDS011;66190;50.708;7.906;2023-02-22T01:53:13;29.08;;;12.27;;
77206;SDS011;66190;50.708;7.906;2023-02-22T01:55:42;27.58;;;12.93;;
77206;SDS011;66190;50.708;7.906;2023-02-22T01:58:08;26.48;;;11.80;;
77206;SDS011;66190;50.708;7.906;2023-02-22T02:00:34;28.27;;;12.10;;
77206;SDS011;66190;50.708;7.906;2023-02-22T02:03:06;29.88;;;11.48;;
77206;SDS011;66190;50.708;7.906;2023-02-22T02:05:34;25.65;;;11.63;;
77206;SDS011;66190;50.708;7.906;2023-02-22T02:11:13;29.05;;;12.18;;
77206;SDS011;66190;50.708;7.906;2023-02-22T02:13:41;31.15;;;13.50;;
77206;SDS011;66190;50.708;7.906;2023-02-22T02:16:07;31.98;;;12.43;;
77206;SDS011;66190;50.708;7.906;2023-02-22T02:18:33;29.60;;;12.20;;
77206;SDS011;66190;50.708;7.906;2023-02-22T02:29:42;28.65;;;12.55;;
77206;SDS011;66190;50.708;7.906;2023-02-22T02:35:18;32.65;;;13.50;;
77206;SDS011;66190;50.708;7.906;2023-02-22T02:40:43;31.73;;;12.38;;
77206;SDS011;66190;50.708;7.906;2023-02-22T02:43:31;31.85;;;13.07;;
77206;SDS011;66190;50.708;7.906;2023-02-22T02:46:16;28.02;;;12.40;;
77206;SDS011;66190;50.708;7.906;2023-02-22T02:48:52;31.42;;;12.25;;
77206;SDS011;66190;50.708;7.906;2023-02-22T02:51:22;29.13;;;13.20;;
77206;SDS011;66190;50.708;7.906;2023-02-22T02:53:51;27.45;;;12.15;;
77206;SDS011;66190;50.708;7.906;2023-02-22T02:56:18;30.95;;;13.48;;
77206;SDS011;66190;50.708;7.906;2023-02-22T02:58:45;30.42;;;12.60;;
77206;SDS011;66190;50.708;7.906;2023-02-22T03:01:13;30.20;;;12.77;;
77206;SDS011;66190;50.708;7.906;2023-02-22T03:03:56;29.20;;;12.30;;
77206;SDS011;66190;50.708;7.906;2023-02-22T03:06:36;31.77;;;13.50;;
77206;SDS011;66190;50.708;7.906;2023-02-22T03:17:42;28.95;;;13.32;;
77206;SDS011;66190;50.708;7.906;2023-02-22T03:23:11;33.40;;;13.57;;
77206;SDS011;66190;50.708;7.906;2023-02-22T03:25:49;32.28;;;14.23;;
77206;SDS011;66190;50.708;7.906;2023-02-22T03:28:19;32.78;;;13.70;;
77206;SDS011;66190;50.708;7.906;2023-02-22T03:30:57;32.58;;;14.63;;
77206;SDS011;66190;50.708;7.906;2023-02-22T03:33:35;32.07;;;13.63;;
77206;SDS011;66190;50.708;7.906;2023-02-22T03:36:13;30.92;;;14.23;;
77206;SDS011;66190;50.708;7.906;2023-02-22T03:38:45;34.80;;;14.68;;
77206;SDS011;66190;50.708;7.906;2023-02-22T03:41:13;36.40;;;15.85;;
77206;SDS011;66190;50.708;7.906;2023-02-22T03:43:44;39.58;;;16.05;;
77206;SDS011;66190;50.708;7.906;2023-02-22T03:46:13;36.77;;;15.83;;
77206;SDS011;66190;50.708;7.906;2023-02-22T03:48:50;37.13;;;15.88;;
77206;SDS011;66190;50.708;7.906;2023-02-22T03:51:18;36.17;;;16.42;;
77206;SDS011;66190;50.708;7.906;2023-02-22T03:53:45;37.47;;;16.65;;
77206;SDS011;66190;50.708;7.906;2023-02-22T03:56:15;36.75;;;16.80;;
77206;SDS011;66190;50.708;7.906;2023-02-22T03:58:46;38.30;;;17.03;;
77206;SDS011;66190;50.708;7.906;2023-02-22T04:01:13;38.35;;;16.98;;
77206;SDS011;66190;50.708;7.906;2023-02-22T04:03:39;38.53;;;17.67;;
77206;SDS011;66190;50.708;7.906;2023-02-22T04:06:06;39.53;;;17.30;;
77206;SDS011;66190;50.708;7.906;2023-02-22T04:08:32;41.47;;;18.50;;
77206;SDS011;66190;50.708;7.906;2023-02-22T04:10:58;42.43;;;18.40;;
77206;SDS011;66190;50.708;7.906;2023-02-22T04:13:23;38.30;;;18.08;;
77206;SDS011;66190;50.708;7.906;2023-02-22T04:15:49;45.65;;;19.70;;
77206;SDS011;66190;50.708;7.906;2023-02-22T04:18:14;41.63;;;18.83;;
77206;SDS011;66190;50.708;7.906;2023-02-22T04:20:40;45.17;;;20.17;;
77206;SDS011;66190;50.708;7.906;2023-02-22T04:23:06;43.27;;;20.63;;
77206;SDS011;66190;50.708;7.906;2023-02-22T04:25:31;45.95;;;20.58;;
77206;SDS011;66190;50.708;7.906;2023-02-22T04:27:57;47.97;;;22.40;;
77206;SDS011;66190;50.708;7.906;2023-02-22T04:30:23;46.07;;;22.77;;
77206;SDS011;66190;50.708;7.906;2023-02-22T04:32:48;53.38;;;23.85;;
77206;SDS011;66190;50.708;7.906;2023-02-22T04:35:14;48.80;;;22.73;;
77206;SDS011;66190;50.708;7.906;2023-02-22T04:37:40;52.40;;;21.58;;
77206;SDS011;66190;50.708;7.906;2023-02-22T04:40:06;49.27;;;22.00;;
77206;SDS011;66190;50.708;7.906;2023-02-22T04:42:33;47.92;;;21.75;;
77206;SDS011;66190;50.708;7.906;2023-02-22T04:44:59;48.65;;;22.90;;
77206;SDS011;66190;50.708;7.906;2023-02-22T04:47:25;50.13;;;23.73;;
77206;SDS011;66190;50.708;7.906;2023-02-22T04:49:51;52.75;;;25.40;;
77206;SDS011;66190;50.708;7.906;2023-02-22T04:52:16;53.40;;;25.33;;
77206;SDS011;66190;50.708;7.906;2023-02-22T04:54:42;48.20;;;23.55;;
77206;SDS011;66190;50.708;7.906;2023-02-22T04:57:08;59.17;;;27.03;;
77206;SDS011;66190;50.708;7.906;2023-02-22T04:59:34;61.17;;;29.02;;
77206;SDS011;66190;50.708;7.906;2023-02-22T05:01:59;64.93;;;32.10;;
77206;SDS011;66190;50.708;7.906;2023-02-22T05:04:25;59.80;;;29.23;;
77206;SDS011;66190;50.708;7.906;2023-02-22T05:06:51;52.47;;;26.30;;
77206;SDS011;66190;50.708;7.906;2023-02-22T05:09:17;50.00;;;24.13;;
77206;SDS011;66190;50.708;7.906;2023-02-22T05:11:43;54.35;;;21.77;;
77206;SDS011;66190;50.708;7.906;2023-02-22T05:14:08;43.15;;;21.70;;
77206;SDS011;66190;50.708;7.906;2023-02-22T05:16:34;49.22;;;21.67;;
77206;SDS011;66190;50.708;7.906;2023-02-22T05:19:00;46.57;;;22.07;;
77206;SDS011;66190;50.708;7.906;2023-02-22T05:21:26;49.85;;;22.95;;
77206;SDS011;66190;50.708;7.906;2023-02-22T05:23:51;44.50;;;22.20;;
77206;SDS011;66190;50.708;7.906;2023-02-22T05:26:17;46.42;;;21.95;;
77206;SDS011;66190;50.708;7.906;2023-02-22T05:28:43;46.33;;;22.73;;
77206;SDS011;66190;50.708;7.906;2023-02-22T05:31:09;46.10;;;20.98;;
77206;SDS011;66190;50.708;7.906;2023-02-22T05:33:34;43.47;;;20.33;;
77206;SDS011;66190;50.708;7.906;2023-02-22T05:36:00;44.45;;;21.13;;
77206;SDS011;66190;50.708;7.906;2023-02-22T05:38:26;43.27;;;20.87;;
77206;SDS011;66190;50.708;7.906;2023-02-22T05:40:52;43.05;;;20.13;;
77206;SDS011;66190;50.708;7.906;2023-02-22T05:43:17;47.97;;;21.10;;
77206;SDS011;66190;50.708;7.906;2023-02-22T05:45:43;49.67;;;21.10;;
77206;SDS011;66190;50.708;7.906;2023-02-22T05:48:09;47.73;;;20.07;;
77206;SDS011;66190;50.708;7.906;2023-02-22T05:50:34;42.47;;;19.90;;
77206;SDS011;66190;50.708;7.906;2023-02-22T05:53:00;46.20;;;20.05;;
77206;SDS011;66190;50.708;7.906;2023-02-22T05:55:26;43.93;;;19.33;;
77206;SDS011;66190;50.708;7.906;2023-02-22T05:57:51;40.15;;;20.13;;
77206;SDS011;66190;50.708;7.906;2023-02-22T06:00:19;41.92;;;20.10;;
77206;SDS011;66190;50.708;7.906;2023-02-22T06:02:52;39.50;;;19.13;;
77206;SDS011;66190;50.708;7.906;2023-02-22T06:05:20;42.03;;;19.48;;
77206;SDS011;66190;50.708;7.906;2023-02-22T06:07:46;45.20;;;19.05;;
77206;SDS011;66190;50.708;7.906;2023-02-22T06:10:11;39.20;;;19.50;;
77206;SDS011;66190;50.708;7.906;2023-02-22T06:12:38;39.13;;;18.92;;
77206;SDS011;66190;50.708;7.906;2023-02-22T06:15:03;40.97;;;19.40;;
77206;SDS011;66190;50.708;7.906;2023-02-22T06:17:29;35.72;;;18.10;;
77206;SDS011;66190;50.708;7.906;2023-02-22T06:19:55;44.15;;;19.05;;
77206;SDS011;66190;50.708;7.906;2023-02-22T06:22:21;38.53;;;18.73;;
77206;SDS011;66190;50.708;7.906;2023-02-22T06:24:47;36.58;;;18.15;;
77206;SDS011;66190;50.708;7.906;2023-02-22T06:27:13;36.80;;;18.70;;
77206;SDS011;66190;50.708;7.906;2023-02-22T06:29:38;38.60;;;18.17;;
77206;SDS011;66190;50.708;7.906;2023-02-22T06:32:08;40.05;;;18.50;;
77206;SDS011;66190;50.708;7.906;2023-02-22T06:34:33;40.27;;;17.60;;
77206;SDS011;66190;50.708;7.906;2023-02-22T06:36:59;36.57;;;16.80;;
77206;SDS011;66190;50.708;7.906;2023-02-22T06:39:25;36.05;;;17.92;;
77206;SDS011;66190;50.708;7.906;2023-02-22T06:41:50;40.03;;;19.23;;
77206;SDS011;66190;50.708;7.906;2023-02-22T06:44:16;38.92;;;18.08;;
77206;SDS011;66190;50.708;7.906;2023-02-22T06:46:46;35.87;;;16.93;;
77206;SDS011;66190;50.708;7.906;2023-02-22T06:49:13;36.47;;;17.50;;
77206;SDS011;66190;50.708;7.906;2023-02-22T06:51:39;36.33;;;17.23;;
77206;SDS011;66190;50.708;7.906;2023-02-22T06:54:05;43.75;;;20.40;;
77206;SDS011;66190;50.708;7.906;2023-02-22T06:56:30;41.33;;;19.53;;
77206;SDS011;66190;50.708;7.906;2023-02-22T06:58:56;40.17;;;19.15;;
77206;SDS011;66190;50.708;7.906;2023-02-22T07:01:22;40.50;;;18.23;;
77206;SDS011;66190;50.708;7.906;2023-02-22T07:03:47;36.03;;;17.98;;
77206;SDS011;66190;50.708;7.906;2023-02-22T07:06:14;37.77;;;17.00;;
77206;SDS011;66190;50.708;7.906;2023-02-22T07:08:40;39.88;;;18.15;;
77206;SDS011;66190;50.708;7.906;2023-02-22T07:11:05;35.97;;;17.83;;
77206;SDS011;66190;50.708;7.906;2023-02-22T07:13:31;34.78;;;17.52;;
77206;SDS011;66190;50.708;7.906;2023-02-22T07:15:56;43.20;;;20.97;;
77206;SDS011;66190;50.708;7.906;2023-02-22T07:18:22;41.33;;;20.08;;
77206;SDS011;66190;50.708;7.906;2023-02-22T07:20:48;40.17;;;20.67;;
77206;SDS011;66190;50.708;7.906;2023-02-22T07:23:15;39.83;;;18.35;;
77206;SDS011;66190;50.708;7.906;2023-02-22T07:25:41;37.30;;;18.88;;
77206;SDS011;66190;50.708;7.906;2023-02-22T07:28:09;37.40;;;16.77;;
77206;SDS011;66190;50.708;7.906;2023-02-22T07:30:36;35.60;;;17.52;;
77206;SDS011;66190;50.708;7.906;2023-02-22T07:33:04;32.67;;;17.10;;
77206;SDS011;66190;50.708;7.906;2023-02-22T07:35:32;39.97;;;18.92;;
77206;SDS011;66190;50.708;7.906;2023-02-22T07:38:00;42.83;;;19.38;;
77206;SDS011;66190;50.708;7.906;2023-02-22T07:40:27;35.40;;;16.30;;
77206;SDS011;66190;50.708;7.906;2023-02-22T07:42:59;36.03;;;16.08;;
77206;SDS011;66190;50.708;7.906;2023-02-22T07:45:31;34.17;;;14.75;;
77206;SDS011;66190;50.708;7.906;2023-02-22T07:47:58;31.75;;;15.55;;
77206;SDS011;66190;50.708;7.906;2023-02-22T07:50:26;32.80;;;15.95;;
77206;SDS011;66190;50.708;7.906;2023-02-22T07:52:54;33.30;;;14.80;;
77206;SDS011;66190;50.708;7.906;2023-02-22T07:55:22;31.40;;;15.05;;
77206;SDS011;66190;50.708;7.906;2023-02-22T07:57:50;30.90;;;14.27;;
77206;SDS011;66190;50.708;7.906;2023-02-22T08:00:37;30.70;;;14.77;;
77206;SDS011;66190;50.708;7.906;2023-02-22T08:03:04;31.05;;;15.07;;
77206;SDS011;66190;50.708;7.906;2023-02-22T08:05:32;33.50;;;14.53;;
77206;SDS011;66190;50.708;7.906;2023-02-22T08:07:59;35.25;;;15.45;;
77206;SDS011;66190;50.708;7.906;2023-02-22T08:10:25;34.15;;;14.98;;
77206;SDS011;66190;50.708;7.906;2023-02-22T08:12:51;31.52;;;15.43;;
77206;SDS011;66190;50.708;7.906;2023-02-22T08:17:45;29.15;;;15.05;;
77206;SDS011;66190;50.708;7.906;2023-02-22T08:20:12;28.42;;;13.43;;
77206;SDS011;66190;50.708;7.906;2023-02-22T08:22:40;27.02;;;13.02;;
77206;SDS011;66190;50.708;7.906;2023-02-22T08:25:08;30.13;;;13.85;;
77206;SDS011;66190;50.708;7.906;2023-02-22T08:27:34;30.05;;;13.20;;
77206;SDS011;66190;50.708;7.906;2023-02-22T08:30:00;32.63;;;14.07;;
77206;SDS011;66190;50.708;7.906;2023-02-22T08:32:25;30.50;;;13.57;;
77206;SDS011;66190;50.708;7.906;2023-02-22T08:34:51;27.55;;;13.98;;
77206;SDS011;66190;50.708;7.906;2023-02-22T08:37:17;29.73;;;13.90;;
77206;SDS011;66190;50.708;7.906;2023-02-22T08:39:43;26.30;;;13.30;;
77206;SDS011;66190;50.708;7.906;2023-02-22T08:42:09;28.23;;;13.13;;
77206;SDS011;66190;50.708;7.906;2023-02-22T08:44:36;26.80;;;13.40;;
77206;SDS011;66190;50.708;7.906;2023-02-22T08:47:02;30.63;;;12.65;;
77206;SDS011;66190;50.708;7.906;2023-02-22T08:49:28;28.83;;;13.38;;
77206;SDS011;66190;50.708;7.906;2023-02-22T08:51:55;27.50;;;12.18;;
77206;SDS011;66190;50.708;7.906;2023-02-22T08:54:20;25.40;;;12.80;;
77206;SDS011;66190;50.708;7.906;2023-02-22T08:56:46;28.55;;;13.07;;
77206;SDS011;66190;50.708;7.906;2023-02-22T08:59:12;25.92;;;12.20;;
77206;SDS011;66190;50.708;7.906;2023-02-22T09:01:38;25.80;;;12.00;;
77206;SDS011;66190;50.708;7.906;2023-02-22T09:04:04;27.55;;;11.57;;
77206;SDS011;66190;50.708;7.906;2023-02-22T09:06:30;25.27;;;11.47;;
77206;SDS011;66190;50.708;7.906;2023-02-22T09:08:56;22.60;;;11.10;;
77206;SDS011;66190;50.708;7.906;2023-02-22T09:11:21;25.40;;;11.07;;
77206;SDS011;66190;50.708;7.906;2023-02-22T09:13:47;24.92;;;11.10;;
77206;SDS011;66190;50.708;7.906;2023-02-22T09:16:13;24.47;;;10.63;;
77206;SDS011;66190;50.708;7.906;2023-02-22T09:18:39;21.73;;;10.43;;
77206;SDS011;66190;50.708;7.906;2023-02-22T09:21:04;24.90;;;11.17;;
77206;SDS011;66190;50.708;7.906;2023-02-22T09:23:30;25.05;;;11.13;;
77206;SDS011;66190;50.708;7.906;2023-02-22T09:25:56;20.88;;;10.30;;
77206;SDS011;66190;50.708;7.906;2023-02-22T09:28:24;21.80;;;9.60;;
77206;SDS011;66190;50.708;7.906;2023-02-22T09:30:51;22.95;;;10.27;;
77206;SDS011;66190;50.708;7.906;2023-02-22T09:33:17;20.20;;;9.82;;
77206;SDS011;66190;50.708;7.906;2023-02-22T09:35:44;26.80;;;11.25;;
77206;SDS011;66190;50.708;7.906;2023-02-22T09:38:14;20.25;;;9.00;;
77206;SDS011;66190;50.708;7.906;2023-02-22T09:40:45;19.80;;;10.18;;
77206;SDS011;66190;50.708;7.906;2023-02-22T09:46:12;20.10;;;9.38;;
77206;SDS011;66190;50.708;7.906;2023-02-22T09:51:27;20.38;;;9.57;;
77206;SDS011;66190;50.708;7.906;2023-02-22T09:54:09;21.15;;;9.00;;
77206;SDS011;66190;50.708;7.906;2023-02-22T09:57:00;18.30;;;8.23;;
77206;SDS011;66190;50.708;7.906;2023-02-22T09:59:30;18.75;;;8.23;;
77206;SDS011;66190;50.708;7.906;2023-02-22T10:02:13;18.00;;;8.65;;
77206;SDS011;66190;50.708;7.906;2023-02-22T10:04:56;20.48;;;8.95;;
77206;SDS011;66190;50.708;7.906;2023-02-22T10:07:58;19.70;;;9.50;;
77206;SDS011;66190;50.708;7.906;2023-02-22T10:10:31;21.88;;;9.50;;
77206;SDS011;66190;50.708;7.906;2023-02-22T10:13:00;19.13;;;9.02;;
77206;SDS011;66190;50.708;7.906;2023-02-22T10:24:04;15.43;;;7.75;;
77206;SDS011;66190;50.708;7.906;2023-02-22T10:26:47;14.48;;;7.03;;
77206;SDS011;66190;50.708;7.906;2023-02-22T10:29:16;15.90;;;6.97;;
77206;SDS011;66190;50.708;7.906;2023-02-22T10:32:04;18.27;;;6.72;;
77206;SDS011;66190;50.708;7.906;2023-02-22T10:34:38;14.50;;;7.38;;
77206;SDS011;66190;50.708;7.906;2023-02-22T10:39:43;14.68;;;6.90;;
77206;SDS011;66190;50.708;7.906;2023-02-22T10:42:10;18.17;;;6.75;;
77206;SDS011;66190;50.708;7.906;2023-02-22T10:44:36;13.82;;;6.43;;
77206;SDS011;66190;50.708;7.906;2023-02-22T10:47:04;14.23;;;6.57;;
77206;SDS011;66190;50.708;7.906;2023-02-22T10:49:40;14.20;;;6.88;;
77206;SDS011;66190;50.708;7.906;2023-02-22T10:52:27;16.02;;;7.18;;
77206;SDS011;66190;50.708;7.906;2023-02-22T10:55:01;17.05;;;7.18;;
77206;SDS011;66190;50.708;7.906;2023-02-22T10:57:31;17.67;;;7.15;;
77206;SDS011;66190;50.708;7.906;2023-02-22T11:01:03;14.02;;;6.00;;
77206;SDS011;66190;50.708;7.906;2023-02-22T11:03:20;13.48;;;5.88;;
77206;SDS011;66190;50.708;7.906;2023-02-22T11:05:47;12.77;;;6.10;;
77206;SDS011;66190;50.708;7.906;2023-02-22T11:10:52;12.88;;;5.97;;
77206;SDS011;66190;50.708;7.906;2023-02-22T11:13:22;14.80;;;6.47;;
77206;SDS011;66190;50.708;7.906;2023-02-22T11:16:39;15.65;;;6.72;;
77206;SDS011;66190;50.708;7.906;2023-02-22T11:19:02;16.92;;;6.30;;
77206;SDS011;66190;50.708;7.906;2023-02-22T11:21:32;15.65;;;6.82;;
77206;SDS011;66190;50.708;7.906;2023-02-22T11:24:02;14.10;;;6.78;;
77206;SDS011;66190;50.708;7.906;2023-02-22T11:26:43;15.55;;;7.47;;
77206;SDS011;66190;50.708;7.906;2023-02-22T11:29:29;15.05;;;6.93;;
77206;SDS011;66190;50.708;7.906;2023-02-22T11:32:01;13.43;;;6.45;;
77206;SDS011;66190;50.708;7.906;2023-02-22T11:34:36;14.50;;;6.63;;
77206;SDS011;66190;50.708;7.906;2023-02-22T11:37:18;14.60;;;6.80;;
77206;SDS011;66190;50.708;7.906;2023-02-22T11:42:38;15.52;;;6.95;;
77206;SDS011;66190;50.708;7.906;2023-02-22T11:45:08;14.98;;;6.35;;
77206;SDS011;66190;50.708;7.906;2023-02-22T11:47:34;14.10;;;6.32;;
77206;SDS011;66190;50.708;7.906;2023-02-22T11:50:24;13.57;;;6.35;;
77206;SDS011;66190;50.708;7.906;2023-02-22T11:52:54;13.57;;;6.07;;
77206;SDS011;66190;50.708;7.906;2023-02-22T11:56:03;13.20;;;6.07;;
77206;SDS011;66190;50.708;7.906;2023-02-22T11:58:52;15.75;;;6.63;;
77206;SDS011;66190;50.708;7.906;2023-02-22T12:09:42;15.77;;;7.93;;
77206;SDS011;66190;50.708;7.906;2023-02-22T12:17:45;15.60;;;6.60;;
77206;SDS011;66190;50.708;7.906;2023-02-22T12:20:16;14.40;;;7.32;;
77206;SDS011;66190;50.708;7.906;2023-02-22T12:22:58;15.13;;;6.93;;
77206;SDS011;66190;50.708;7.906;2023-02-22T12:25:35;16.08;;;7.13;;
77206;SDS011;66190;50.708;7.906;2023-02-22T12:31:14;14.40;;;7.07;;
77206;SDS011;66190;50.708;7.906;2023-02-22T12:33:47;14.05;;;6.85;;
77206;SDS011;66190;50.708;7.906;2023-02-22T12:36:19;15.35;;;7.20;;
77206;SDS011;66190;50.708;7.906;2023-02-22T12:38:53;15.52;;;7.25;;
77206;SDS011;66190;50.708;7.906;2023-02-22T12:41:26;16.33;;;7.60;;
77206;SDS011;66190;50.708;7.906;2023-02-22T12:46:34;14.52;;;6.30;;
77206;SDS011;66190;50.708;7.906;2023-02-22T12:52:00;11.82;;;6.25;;
77206;SDS011;66190;50.708;7.906;2023-02-22T12:54:53;13.00;;;6.13;;
77206;SDS011;66190;50.708;7.906;2023-02-22T13:00:37;14.40;;;5.78;;
77206;SDS011;66190;50.708;7.906;2023-02-22T13:09:26;13.67;;;5.40;;
77206;SDS011;66190;50.708;7.906;2023-02-22T13:17:27;13.10;;;6.65;;
77206;SDS011;66190;50.708;7.906;2023-02-22T13:23:02;13.53;;;6.70;;
77206;SDS011;66190;50.708;7.906;2023-02-22T13:25:50;12.63;;;5.88;;
77206;SDS011;66190;50.708;7.906;2023-02-22T13:28:35;13.30;;;6.20;;
77206;SDS011;66190;50.708;7.906;2023-02-22T13:33:46;12.60;;;6.03;;
77206;SDS011;66190;50.708;7.906;2023-02-22T13:45:16;13.63;;;6.97;;
77206;SDS011;66190;50.708;7.906;2023-02-22T13:53:50;13.77;;;6.65;;
77206;SDS011;66190;50.708;7.906;2023-02-22T13:56:21;12.60;;;6.88;;
77206;SDS011;66190;50.708;7.906;2023-02-22T13:58:49;13.32;;;6.72;;
77206;SDS011;66190;50.708;7.906;2023-02-22T14:06:56;13.90;;;6.85;;
77206;SDS011;66190;50.708;7.906;2023-02-22T14:09:46;13.43;;;6.38;;
77206;SDS011;66190;50.708;7.906;2023-02-22T14:17:38;12.30;;;6.93;;
77206;SDS011;66190;50.708;7.906;2023-02-22T14:22:43;13.50;;;6.43;;
77206;SDS011;66190;50.708;7.906;2023-02-22T14:27:56;14.70;;;7.30;;
77206;SDS011;66190;50.708;7.906;2023-02-22T14:30:23;15.10;;;8.25;;
77206;SDS011;66190;50.708;7.906;2023-02-22T14:32:51;15.00;;;7.60;;
77206;SDS011;66190;50.708;7.906;2023-02-22T14:35:17;15.87;;;7.00;;
77206;SDS011;66190;50.708;7.906;2023-02-22T14:37:48;13.63;;;7.28;;
77206;SDS011;66190;50.708;7.906;2023-02-22T14:45:33;14.23;;;6.70;;
77206;SDS011;66190;50.708;7.906;2023-02-22T14:48:24;12.43;;;6.80;;
77206;SDS011;66190;50.708;7.906;2023-02-22T14:51:01;15.07;;;7.72;;
77206;SDS011;66190;50.708;7.906;2023-02-22T14:53:45;14.85;;;8.07;;
77206;SDS011;66190;50.708;7.906;2023-02-22T14:56:14;17.48;;;9.55;;
77206;SDS011;66190;50.708;7.906;2023-02-22T14:58:57;16.47;;;8.53;;
77206;SDS011;66190;50.708;7.906;2023-02-22T15:01:39;14.68;;;8.05;;
77206;SDS011;66190;50.708;7.906;2023-02-22T15:06:42;17.63;;;8.63;;
77206;SDS011;66190;50.708;7.906;2023-02-22T15:09:13;16.50;;;8.87;;
77206;SDS011;66190;50.708;7.906;2023-02-22T15:11:50;18.95;;;9.35;;
77206;SDS011;66190;50.708;7.906;2023-02-22T15:14:20;15.25;;;7.93;;
77206;SDS011;66190;50.708;7.906;2023-02-22T15:16:51;14.52;;;7.72;;
77206;SDS011;66190;50.708;7.906;2023-02-22T15:19:26;17.10;;;9.02;;
77206;SDS011;66190;50.708;7.906;2023-02-22T15:21:55;15.65;;;8.30;;
77206;SDS011;66190;50.708;7.906;2023-02-22T15:24:27;18.65;;;9.48;;
77206;SDS011;66190;50.708;7.906;2023-02-22T15:27:13;19.95;;;10.50;;
77206;SDS011;66190;50.708;7.906;2023-02-22T15:29:43;18.17;;;9.55;;
77206;SDS011;66190;50.708;7.906;2023-02-22T15:37:38;18.80;;;9.73;;
77206;SDS011;66190;50.708;7.906;2023-02-22T15:40:05;16.45;;;9.73;;
77206;SDS011;66190;50.708;7.906;2023-02-22T15:42:45;18.33;;;9.55;;
77206;SDS011;66190;50.708;7.906;2023-02-22T15:45:22;16.10;;;7.97;;
77206;SDS011;66190;50.708;7.906;2023-02-22T15:47:49;15.57;;;8.05;;
77206;SDS011;66190;50.708;7.906;2023-02-22T15:55:44;21.92;;;10.20;;
77206;SDS011;66190;50.708;7.906;2023-02-22T16:00:43;17.10;;;9.02;;
77206;SDS011;66190;50.708;7.906;2023-02-22T16:03:14;21.05;;;10.80;;
77206;SDS011;66190;50.708;7.906;2023-02-22T16:05:52;22.77;;;11.70;;
77206;SDS011;66190;50.708;7.906;2023-02-22T16:08:24;19.88;;;11.20;;
77206;SDS011;66190;50.708;7.906;2023-02-22T16:10:58;16.80;;;8.97;;
77206;SDS011;66190;50.708;7.906;2023-02-22T16:13:28;18.88;;;9.57;;
77206;SDS011;66190;50.708;7.906;2023-02-22T16:16:01;18.75;;;9.93;;
77206;SDS011;66190;50.708;7.906;2023-02-22T16:18:38;16.27;;;9.60;;
77206;SDS011;66190;50.708;7.906;2023-02-22T16:21:09;18.50;;;9.63;;
77206;SDS011;66190;50.708;7.906;2023-02-22T16:26:24;19.52;;;10.50;;
77206;SDS011;66190;50.708;7.906;2023-02-22T16:31:23;20.15;;;9.00;;
77206;SDS011;66190;50.708;7.906;2023-02-22T16:33:55;17.88;;;8.48;;
77206;SDS011;66190;50.708;7.906;2023-02-22T16:36:22;19.23;;;9.17;;
77206;SDS011;66190;50.708;7.906;2023-02-22T16:39:01;19.35;;;9.80;;
77206;SDS011;66190;50.708;7.906;2023-02-22T16:41:31;19.77;;;11.10;;
77206;SDS011;66190;50.708;7.906;2023-02-22T16:43:57;22.55;;;11.30;;
77206;SDS011;66190;50.708;7.906;2023-02-22T16:46:22;19.87;;;11.13;;
77206;SDS011;66190;50.708;7.906;2023-02-22T16:48:48;21.50;;;12.07;;
77206;SDS011;66190;50.708;7.906;2023-02-22T16:53:48;21.17;;;11.23;;
77206;SDS011;66190;50.708;7.906;2023-02-22T16:56:15;22.35;;;12.00;;
77206;SDS011;66190;50.708;7.906;2023-02-22T16:58:44;23.47;;;13.33;;
77206;SDS011;66190;50.708;7.906;2023-02-22T17:01:13;21.60;;;12.90;;
77206;SDS011;66190;50.708;7.906;2023-02-22T17:03:40;20.70;;;11.65;;
77206;SDS011;66190;50.708;7.906;2023-02-22T17:06:06;20.58;;;10.73;;
77206;SDS011;66190;50.708;7.906;2023-02-22T17:08:34;20.70;;;11.15;;
77206;SDS011;66190;50.708;7.906;2023-02-22T17:11:04;20.75;;;10.52;;
77206;SDS011;66190;50.708;7.906;2023-02-22T17:13:30;21.42;;;11.02;;
77206;SDS011;66190;50.708;7.906;2023-02-22T17:15:56;21.42;;;11.35;;
77206;SDS011;66190;50.708;7.906;2023-02-22T17:18:22;20.43;;;11.20;;
77206;SDS011;66190;50.708;7.906;2023-02-22T17:20:52;23.48;;;11.57;;
77206;SDS011;66190;50.708;7.906;2023-02-22T17:23:19;22.83;;;12.30;;